createdAt,value
2023-03-31T00:01:47.412Z,11.43
2023-03-31T00:06:57.534Z,11.36
2023-03-31T00:12:02.674Z,11.42
2023-03-31T00:17:08.955Z,11.44
2023-03-31T00:22:19.067Z,11.52
2023-03-31T00:27:24.325Z,11.45
2023-03-31T00:32:29.602Z,11.44
2023-03-31T00:37:38.123Z,11.43
2023-03-31T00:42:46.905Z,11.48
2023-03-31T00:47:56.285Z,11.43
2023-03-31T00:53:11.169Z,11.49
2023-03-31T00:58:20.546Z,11.51
2023-03-31T01:03:26.695Z,11.53
2023-03-31T01:08:36.934Z,11.47
2023-03-31T01:13:44.321Z,11.46
2023-03-31T01:18:50.268Z,11.43
2023-03-31T01:24:32.150Z,11.43
2023-03-31T01:30:13.097Z,11.42
2023-03-31T01:35:43.858Z,11.50
2023-03-31T01:41:06.055Z,11.53
2023-03-31T01:46:19.324Z,11.48
2023-03-31T01:51:34.935Z,11.39
2023-03-31T01:56:47.784Z,11.34
2023-03-31T02:01:56.998Z,11.41
2023-03-31T02:07:07.290Z,11.34
2023-03-31T02:12:16.542Z,11.34
2023-03-31T02:17:30.981Z,11.36
2023-03-31T02:22:40.625Z,11.28
2023-03-31T02:27:53.028Z,11.26
2023-03-31T02:32:58.284Z,11.21
2023-03-31T02:38:06.944Z,11.34
2023-03-31T02:43:17.201Z,11.25
2023-03-31T02:48:31.389Z,11.23
2023-03-31T02:53:46.625Z,11.18
2023-03-31T02:59:09.730Z,11.07
2023-03-31T03:04:34.277Z,10.98
2023-03-31T03:09:48.246Z,10.85
2023-03-31T03:15:03.411Z,10.92
2023-03-31T03:20:14.141Z,10.80
2023-03-31T03:25:21.515Z,10.79
2023-03-31T03:30:30.710Z,10.78
2023-03-31T03:35:39.433Z,10.87
2023-03-31T03:40:47.645Z,10.93
2023-03-31T03:45:56.757Z,10.95
2023-03-31T03:51:06.715Z,10.91
2023-03-31T03:56:11.945Z,10.94
2023-03-31T04:01:21.248Z,11.00
2023-03-31T04:06:33.722Z,11.02
2023-03-31T04:11:41.331Z,11.10
2023-03-31T04:16:50.046Z,11.08
2023-03-31T04:21:59.874Z,11.06
2023-03-31T04:27:07.469Z,11.15
2023-03-31T04:32:21.806Z,11.09
2023-03-31T04:37:35.896Z,11.13
2023-03-31T04:42:41.278Z,11.11
2023-03-31T04:47:50.106Z,11.14
2023-03-31T04:52:57.522Z,11.08
2023-03-31T04:58:03.028Z,11.22
2023-03-31T05:03:11.668Z,11.23
2023-03-31T05:08:17.066Z,11.34
2023-03-31T05:13:25.610Z,11.42
2023-03-31T05:18:33.582Z,11.38
2023-03-31T05:23:38.777Z,11.34
2023-03-31T05:28:44.641Z,11.33
2023-03-31T05:33:52.606Z,11.71
2023-03-31T05:38:57.719Z,11.76
2023-03-31T05:44:03.051Z,11.93
2023-03-31T05:49:16.168Z,11.87
2023-03-31T05:54:21.240Z,11.85
2023-03-31T05:59:26.601Z,15.24
2023-03-31T06:04:34.652Z,17.46
2023-03-31T06:09:41.990Z,13.93
2023-03-31T06:14:46.986Z,12.80
2023-03-31T06:19:58.477Z,12.56
2023-03-31T06:25:04.632Z,13.12
2023-03-31T06:30:11.761Z,12.89
2023-03-31T06:35:20.809Z,12.61
2023-03-31T06:40:27.400Z,12.65
2023-03-31T06:45:32.507Z,12.72
2023-03-31T06:50:41.514Z,13.30
2023-03-31T06:55:46.653Z,14.14
2023-03-31T07:00:53.010Z,13.41
2023-03-31T07:06:05.242Z,13.44
2023-03-31T07:11:12.602Z,15.47
2023-03-31T07:16:18.012Z,13.78
2023-03-31T07:21:26.520Z,13.62
2023-03-31T07:26:32.194Z,13.23
2023-03-31T07:31:40.318Z,13.89
2023-03-31T07:36:50.422Z,13.79
2023-03-31T07:41:55.585Z,13.79
2023-03-31T07:47:04.635Z,13.97
2023-03-31T07:52:12.322Z,14.99
2023-03-31T07:57:20.102Z,17.06
2023-03-31T08:02:25.569Z,18.29
2023-03-31T08:07:36.368Z,17.11
2023-03-31T08:12:44.300Z,16.97
2023-03-31T08:17:53.804Z,16.26
2023-03-31T08:23:09.970Z,16.08
2023-03-31T08:28:15.134Z,15.41
2023-03-31T08:33:20.983Z,15.00
2023-03-31T08:38:30.371Z,14.98
2023-03-31T08:43:42.559Z,14.63
2023-03-31T08:48:54.438Z,14.41
2023-03-31T08:54:08.248Z,14.33
2023-03-31T08:59:23.441Z,14.08
2023-03-31T09:04:54.137Z,14.24
2023-03-31T09:10:14.090Z,13.85
2023-03-31T09:15:29.558Z,14.03
2023-03-31T09:20:40.026Z,13.34
2023-03-31T09:25:49.212Z,13.49
2023-03-31T09:30:57.710Z,13.88
2023-03-31T09:36:03.603Z,13.94
2023-03-31T09:41:13.024Z,13.77
2023-03-31T09:46:22.315Z,13.52
2023-03-31T09:51:32.842Z,13.54
2023-03-31T09:56:50.677Z,13.34
2023-03-31T10:02:00.300Z,13.44
2023-03-31T10:07:08.329Z,13.40
2023-03-31T10:12:21.659Z,13.60
2023-03-31T10:17:34.026Z,13.61
2023-03-31T10:22:48.311Z,13.43
2023-03-31T10:28:02.947Z,13.42
2023-03-31T10:38:30.215Z,13.11
2023-03-31T10:43:43.224Z,12.91
2023-03-31T10:48:54.642Z,13.08
2023-03-31T10:54:05.148Z,12.68
2023-03-31T10:59:36.553Z,12.64
2023-03-31T11:04:51.187Z,12.59
2023-03-31T11:10:06.329Z,12.66
2023-03-31T11:15:24.250Z,12.64
2023-03-31T11:20:37.194Z,12.27
2023-03-31T11:25:49.664Z,12.24
2023-03-31T11:31:06.923Z,12.39
2023-03-31T11:36:26.919Z,12.40
2023-03-31T11:41:38.395Z,12.34
2023-03-31T11:46:51.657Z,12.33
2023-03-31T11:51:59.864Z,12.22
2023-03-31T11:57:26.441Z,12.34
2023-03-31T12:03:00.858Z,12.30
2023-03-31T12:08:11.704Z,12.40
2023-03-31T12:13:36.908Z,12.12
2023-03-31T12:18:49.605Z,12.09
2023-03-31T12:23:55.105Z,11.79
2023-03-31T12:29:03.672Z,11.82
2023-03-31T12:34:16.945Z,11.63
2023-03-31T12:39:33.847Z,12.02
2023-03-31T12:44:50.771Z,11.91
2023-03-31T12:50:20.117Z,12.03
2023-03-31T12:55:45.461Z,12.01
2023-03-31T13:01:08.428Z,11.96
2023-03-31T13:06:54.337Z,12.01
2023-03-31T13:11:59.597Z,11.60
2023-03-31T13:17:17.712Z,11.44
2023-03-31T13:22:39.795Z,11.33
2023-03-31T13:27:54.413Z,11.20
2023-03-31T13:33:09.247Z,11.36
2023-03-31T13:38:28.393Z,11.31
2023-03-31T13:44:00.576Z,11.24
2023-03-31T13:49:32.002Z,11.30
2023-03-31T13:54:56.069Z,11.44
2023-03-31T14:00:27.443Z,11.72
2023-03-31T14:05:39.126Z,12.13
2023-03-31T14:10:47.342Z,12.06
2023-03-31T14:15:55.911Z,12.18
2023-03-31T14:21:13.841Z,11.91
2023-03-31T14:26:33.543Z,11.84
2023-03-31T14:31:44.836Z,11.80
2023-03-31T14:36:59.287Z,11.79
2023-03-31T14:42:10.509Z,12.03
2023-03-31T14:47:25.049Z,12.05
2023-03-31T14:52:36.226Z,12.02
2023-03-31T14:57:44.886Z,12.22
2023-03-31T15:02:51.168Z,12.28
2023-03-31T15:08:02.939Z,12.35
2023-03-31T15:13:16.142Z,12.52
2023-03-31T15:18:21.852Z,12.34
2023-03-31T15:23:28.985Z,12.62
2023-03-31T15:28:44.002Z,12.81
2023-03-31T15:33:50.908Z,12.66
2023-03-31T15:39:00.244Z,12.75
2023-03-31T15:44:32.300Z,13.02
2023-03-31T15:49:39.155Z,13.01
2023-03-31T15:54:45.077Z,12.85
2023-03-31T16:05:53.668Z,13.09
2023-03-31T16:11:04.417Z,12.94
2023-03-31T16:13:34.647Z,13.14
2023-03-31T16:16:16.074Z,12.65
2023-03-31T16:21:26.656Z,12.79
2023-03-31T16:26:32.966Z,11.96
2023-03-31T16:31:42.926Z,11.81
2023-03-31T16:36:51.363Z,12.00
2023-03-31T16:41:57.034Z,11.80
2023-03-31T16:47:04.955Z,11.69
2023-03-31T16:52:12.657Z,11.59
2023-03-31T16:57:21.088Z,11.60
2023-03-31T17:02:29.298Z,11.39
2023-03-31T17:07:34.964Z,11.38
2023-03-31T17:12:40.440Z,11.55
2023-03-31T17:17:52.716Z,11.28
2023-03-31T17:23:00.923Z,11.35
2023-03-31T17:28:06.861Z,11.11
2023-03-31T17:33:14.664Z,11.10
2023-03-31T17:38:21.682Z,10.99
2023-03-31T17:43:28.832Z,11.26
2023-03-31T17:48:38.698Z,11.48
2023-03-31T17:53:45.549Z,11.48
2023-03-31T17:58:53.888Z,11.47
2023-03-31T18:04:02.454Z,11.54
2023-03-31T18:09:08.854Z,11.34
2023-03-31T18:14:14.697Z,11.35
2023-03-31T18:19:24.407Z,11.42
2023-03-31T18:24:29.664Z,11.23
2023-03-31T18:29:36.749Z,11.19
2023-03-31T18:34:44.821Z,11.31
2023-03-31T18:39:49.949Z,11.36
2023-03-31T18:45:00.787Z,11.11
2023-03-31T18:50:10.007Z,11.03
2023-03-31T18:55:15.164Z,11.05
2023-03-31T19:00:20.989Z,10.92
2023-03-31T19:05:29.434Z,10.91
2023-03-31T19:10:35.894Z,10.88
2023-03-31T19:15:41.083Z,11.02
2023-03-31T19:20:49.795Z,11.03
2023-03-31T19:25:56.100Z,10.90
2023-03-31T19:31:02.565Z,10.98
2023-03-31T19:36:10.430Z,10.91
2023-03-31T19:41:15.626Z,10.67
2023-03-31T19:46:21.063Z,10.84
2023-03-31T19:51:28.991Z,10.80
2023-03-31T19:56:36.847Z,10.82
2023-03-31T20:01:42.361Z,10.79
2023-03-31T20:06:50.329Z,10.70
2023-03-31T20:11:58.052Z,10.91
2023-03-31T20:17:05.058Z,10.89
2023-03-31T20:22:13.429Z,10.93
2023-03-31T20:27:19.096Z,10.82
2023-03-31T20:32:24.354Z,10.77
2023-03-31T20:37:32.882Z,10.70
2023-03-31T20:42:38.027Z,10.54
2023-03-31T20:47:43.675Z,10.50
2023-03-31T20:52:52.392Z,10.45
2023-03-31T20:57:57.543Z,10.51
2023-03-31T21:03:04.423Z,10.42
2023-03-31T21:08:12.632Z,10.18
2023-03-31T21:13:21.189Z,10.17
2023-03-31T21:18:26.927Z,10.16
2023-03-31T21:23:38.970Z,10.09
2023-03-31T21:28:45.030Z,10.22
2023-03-31T21:33:50.900Z,10.21
2023-03-31T21:39:00.527Z,10.14
2023-03-31T21:44:05.676Z,10.02
2023-03-31T21:49:13.304Z,10.15
2023-03-31T21:54:24.495Z,10.29
2023-03-31T21:59:29.882Z,10.17
2023-03-31T22:04:37.960Z,10.08
2023-03-31T22:09:45.677Z,10.33
2023-03-31T22:14:50.966Z,10.07
2023-03-31T22:19:56.193Z,10.14
2023-03-31T22:25:03.883Z,10.10
2023-03-31T22:30:11.241Z,10.12
2023-03-31T22:35:16.680Z,10.04
2023-03-31T22:40:26.485Z,10.09
2023-03-31T22:45:31.933Z,10.07
2023-03-31T22:50:37.504Z,10.01
2023-03-31T22:55:53.948Z,9.97
2023-03-31T23:01:00.805Z,10.15
2023-03-31T23:06:12.831Z,10.05
2023-03-31T23:11:20.953Z,10.01
2023-03-31T23:16:28.038Z,9.96
2023-03-31T23:21:33.934Z,10.07
2023-03-31T23:26:41.823Z,10.04
2023-03-31T23:31:47.397Z,9.93
2023-03-31T23:36:53.056Z,10.03
2023-03-31T23:42:01.357Z,9.95
2023-03-31T23:47:07.112Z,9.92
2023-03-31T23:52:12.832Z,9.92
2023-03-31T23:57:22.843Z,9.90
